Atlantico Due — ORUW — position and weather

sailwx.info

Track history (hours):
 
Tides and Currents Weather Stations Pressure Air Temp Water Temp Dewpoint Dewpoint Depression Visibility Wind Speed Wind Dir Waves Ship Positions

Atlantico Due

Last reported at 2014-Nov-25 01:33 UTC. Time now 2014-Nov-25 01:54 UTC.
Position N 09°27' W 013°42'.

; draft 6 m.

Type: Dredging. MMSI: 205062000.

Date/timePositionNaut miles runAvg speedWind from/ knotsBaromVisibWave heightAir tempDewpointWater temp
2014-Nov-25 01:33N 09°27' W 013°42'3 3.2
2014-Nov-25 00:34N 09°30' W 013°43'1 0.9
2014-Nov-24 23:34N 09°30' W 013°43'1 0.7
2014-Nov-24 22:34N 09°30' W 013°44'1 1.3
2014-Nov-24 21:34N 09°29' W 013°43'2 1.6
2014-Nov-24 20:34N 09°31' W 013°43'1 0.8
2014-Nov-24 19:33N 09°30' W 013°43'1 0.8
2014-Nov-24 18:33N 09°31' W 013°43'0 0.0
2014-Nov-24 17:34N 09°31' W 013°43'3 3.0
2014-Nov-24 16:33N 09°28' W 013°42'3 3.1
2014-Nov-24 15:34N 09°31' W 013°43'1 1.4
2014-Nov-24 14:33N 09°29' W 013°44'2 1.7
2014-Nov-24 13:34N 09°31' W 013°43'1 1.0
2014-Nov-24 12:33N 09°30' W 013°44'0 0.3
2014-Nov-24 11:34N 09°30' W 013°44'0 0.3
2014-Nov-24 10:34N 09°30' W 013°44'0 0.2
2014-Nov-24 09:34N 09°30' W 013°44'0 0.4
2014-Nov-24 08:34N 09°30' W 013°43'2 1.8
2014-Nov-24 07:34N 09°28' W 013°43'2 2.4
2014-Nov-24 06:34N 09°31' W 013°44'1 1.0
2014-Nov-24 05:34N 09°30' W 013°44'1 0.7
2014-Nov-24 04:34N 09°30' W 013°44'3 3.0
2014-Nov-24 03:34N 09°28' W 013°42'3 3.1
2014-Nov-24 02:34N 09°30' W 013°43'3 2.5
2014-Nov-24 01:34N 09°28' W 013°43'3 2.5
2014-Nov-24 00:33N 09°30' W 013°44'0 0.5
2014-Nov-23 23:34N 09°30' W 013°44'2 2.1
2014-Nov-23 22:33N 09°28' W 013°42'3 2.9
2014-Nov-23 21:34N 09°31' W 013°43'1 0.5
2014-Nov-23 20:34N 09°30' W 013°44'2 1.8
2014-Nov-23 19:34N 09°29' W 013°43'2 1.8
2014-Nov-23 18:33N 09°30' W 013°44'0 0.1
2014-Nov-23 17:33N 09°30' W 013°44'2 2.5
2014-Nov-23 16:34N 09°28' W 013°43'3 2.5
2014-Nov-23 15:34N 09°30' W 013°44'0 0.2
2014-Nov-23 14:34N 09°30' W 013°44'1 1.1
2014-Nov-23 13:34N 09°29' W 013°43'1 1.5
2014-Nov-23 12:34N 09°30' W 013°43'3 2.7
2014-Nov-23 11:34N 09°28' W 013°43'3 3.3
2014-Nov-23 10:33N 09°31' W 013°43'3 3.4
2014-Nov-23 09:33N 09°28' W 013°42'3 2.6
2014-Nov-23 08:33N 09°30' W 013°44'0 0.1
2014-Nov-23 07:33N 09°30' W 013°44'2 2.3
2014-Nov-23 06:34N 09°28' W 013°42'3 2.9
2014-Nov-23 05:34N 09°31' W 013°43'2 1.9
2014-Nov-23 04:33N 09°29' W 013°44'0 0.4
2014-Nov-23 03:33N 09°29' W 013°43'2 2.1
2014-Nov-23 02:34N 09°31' W 013°43'3 3.2
2014-Nov-23 01:33N 09°28' W 013°43'3 2.8
2014-Nov-23 00:34N 09°30' W 013°44'1 0.5
2014-Nov-22 23:33N 09°31' W 013°43'3 2.9
2014-Nov-22 22:33N 09°28' W 013°43'3 3.0
2014-Nov-22 21:33N 09°31' W 013°43'1 1.0
2014-Nov-22 20:33N 09°30' W 013°44'1 1.3
2014-Nov-22 19:34N 09°29' W 013°43'2 1.7
2014-Nov-22 18:33N 09°31' W 013°43'1 0.6
2014-Nov-22 17:33N 09°30' W 013°43'1 0.6
2014-Nov-22 16:34N 09°29' W 013°43'1 1.3
2014-Nov-22 15:33N 09°31' W 013°43'3 3.2
2014-Nov-22 14:34N 09°28' W 013°43'3 3.2
2014-Nov-22 13:33N 09°31' W 013°43'3 3.3
2014-Nov-22 12:33N 09°27' W 013°43'3 3.4
2014-Nov-22 11:33N 09°31' W 013°43'3 3.0
2014-Nov-22 10:33N 09°28' W 013°42'3 2.9
2014-Nov-22 09:33N 09°31' W 013°44'1 0.7
2014-Nov-22 08:33N 09°30' W 013°43'2 2.2
2014-Nov-22 07:33N 09°28' W 013°42'3 2.9
2014-Nov-22 06:33N 09°31' W 013°43'3 3.0
2014-Nov-22 05:33N 09°28' W 013°42'3 3.3
2014-Nov-22 04:34N 09°31' W 013°43'1 1.2
2014-Nov-22 03:33N 09°30' W 013°44'3 2.6
2014-Nov-22 02:33N 09°27' W 013°43'3 3.3
2014-Nov-22 01:33N 09°31' W 013°43'1 0.8
2014-Nov-22 00:34N 09°30' W 013°44'2 1.9
2014-Nov-21 23:33N 09°28' W 013°43'3 2.8
2014-Nov-21 22:33N 09°31' W 013°43'2 1.7
2014-Nov-21 21:33N 09°29' W 013°44'1 0.5
2014-Nov-21 20:33N 09°29' W 013°43'2 1.9
2014-Nov-21 19:33N 09°31' W 013°43'3 2.6
2014-Nov-21 18:34N 09°29' W 013°43'3 2.6
2014-Nov-21 17:33N 09°31' W 013°43'3 3.2
2014-Nov-21 16:33N 09°28' W 013°42'3 3.2
2014-Nov-21 15:33N 09°31' W 013°43'0 0.1
2014-Nov-21 14:22N 09°31' W 013°43'0 0.0
2014-Nov-21 13:31N 09°31' W 013°43'0 0.0
2014-Nov-21 12:33N 09°31' W 013°43'0 0.0
2014-Nov-21 11:33N 09°31' W 013°43'0 0.0
2014-Nov-21 10:33N 09°31' W 013°43'0 0.0
2014-Nov-21 09:33N 09°31' W 013°43'0 0.0
2014-Nov-21 08:33N 09°31' W 013°43'1 0.6
2014-Nov-21 07:33N 09°31' W 013°43'2 1.6
2014-Nov-21 06:33N 09°29' W 013°44'1 1.4
2014-Nov-21 05:34N 09°28' W 013°43'0 0.1
2014-Nov-21 04:33N 09°28' W 013°43'1 0.9
2014-Nov-21 03:33N 09°29' W 013°43'1 1.1
2014-Nov-21 02:33N 09°30' W 013°44'1 0.7
2014-Nov-21 01:33N 09°29' W 013°44'1 0.7
2014-Nov-21 00:33N 09°30' W 013°44'0 0.4
2014-Nov-20 23:33N 09°29' W 013°44'0 0.2
2014-Nov-20 22:33N 09°29' W 013°44'0 0.3
2014-Nov-20 21:33N 09°29' W 013°44'0 0.1
2014-Nov-20 20:33N 09°29' W 013°44'0 0.5
2014-Nov-20 19:33N 09°29' W 013°44'1 0.6
2014-Nov-20 18:33N 09°30' W 013°44'0 0.0
2014-Nov-20 17:33N 09°30' W 013°44'0 0.1
2014-Nov-20 16:34N 09°29' W 013°44'0 0.1
2014-Nov-20 15:33N 09°29' W 013°44'0 0.5
2014-Nov-20 14:33N 09°29' W 013°44'2 1.8
2014-Nov-20 13:33N 09°27' W 013°43'1 0.6
2014-Nov-20 12:33N 09°28' W 013°43'1 1.3
2014-Nov-20 11:33N 09°29' W 013°44'1 0.6
2014-Nov-20 10:33N 09°30' W 013°44'1 1.0
2014-Nov-20 09:33N 09°29' W 013°43'1 1.1
2014-Nov-20 08:33N 09°28' W 013°42'1 1.4
2014-Nov-20 07:33N 09°29' W 013°43'2 1.7
2014-Nov-20 06:33N 09°31' W 013°43'1 0.8
2014-Nov-20 05:33N 09°30' W 013°44'2 2.2
2014-Nov-20 04:33N 09°28' W 013°43'3 2.9
2014-Nov-20 03:33N 09°31' W 013°43'3 2.7
2014-Nov-20 02:33N 09°28' W 013°43'2 2.5
2014-Nov-20 01:34N 09°31' W 013°43'0 0.5
2014-Nov-20 00:34N 09°30' W 013°44'2 2.0
2014-Nov-19 23:34N 09°28' W 013°43'2 2.5
2014-Nov-19 22:34N 09°31' W 013°43'3 2.8
2014-Nov-19 21:33N 09°28' W 013°43'3 2.7
2014-Nov-19 20:33N 09°31' W 013°44'1 0.5
2014-Nov-19 19:33N 09°31' W 013°43'3 2.6
2014-Nov-19 18:33N 09°29' W 013°43'2 1.7
2014-Nov-19 17:34N 09°30' W 013°44'1 0.7
2014-Nov-19 16:33N 09°31' W 013°43'0 0.4
2014-Nov-19 15:33N 09°30' W 013°44'3 2.8
2014-Nov-19 14:33N 09°28' W 013°43'2 1.8
2014-Nov-19 13:34N 09°29' W 013°44'1 0.5
2014-Nov-19 12:33N 09°30' W 013°44'0 0.1
2014-Nov-19 11:33N 09°30' W 013°44'2 1.7
2014-Nov-19 10:34N 09°28' W 013°43'0 0.2
2014-Nov-19 09:33N 09°28' W 013°43'1 1.2
2014-Nov-19 08:33N 09°29' W 013°44'0 0.3
2014-Nov-19 07:33N 09°29' W 013°44'1 1.2
2014-Nov-19 06:33N 09°30' W 013°44'3 2.7
2014-Nov-19 05:33N 09°28' W 013°43'3 3.1
2014-Nov-19 04:33N 09°31' W 013°43'2 1.9
2014-Nov-19 03:33N 09°29' W 013°43'1 0.7
2014-Nov-19 02:34N 09°30' W 013°44'1 0.9
2014-Nov-19 01:33N 09°30' W 013°44'2 2.4
2014-Nov-19 00:31N 09°28' W 013°43'3 3.1
2014-Nov-18 23:33N 09°31' W 013°43'1 1.1
2014-Nov-18 22:33N 09°30' W 013°44'2 1.7
2014-Nov-18 21:33N 09°28' W 013°43'3 2.5
2014-Nov-18 20:33N 09°31' W 013°43'2 2.4
2014-Nov-18 19:33N 09°28' W 013°43'2 1.7
2014-Nov-18 18:33N 09°30' W 013°44'1 1.0
2014-Nov-18 17:33N 09°31' W 013°43'2 2.1
2014-Nov-18 16:33N 09°29' W 013°43'1 0.9
2014-Nov-18 15:33N 09°30' W 013°43'1 1.2
2014-Nov-18 14:33N 09°31' W 013°43'3 2.9
2014-Nov-18 13:33N 09°28' W 013°43'3 2.9
2014-Nov-18 12:33N 09°31' W 013°43'1 0.9
2014-Nov-18 11:33N 09°30' W 013°44'2 1.7
2014-Nov-18 10:33N 09°28' W 013°43'3 2.5
2014-Nov-18 09:33N 09°31' W 013°43'3 3.3
2014-Nov-18 08:33N 09°28' W 013°43'3 3.4
2014-Nov-18 07:34N 09°31' W 013°43'0 0.5
2014-Nov-18 06:33N 09°31' W 013°43'3 2.9
2014-Nov-18 05:32N 09°28' W 013°42'3 3.3
2014-Nov-18 04:33N 09°31' W 013°43'1 1.3
2014-Nov-18 03:34N 09°30' W 013°44'1 1.2
2014-Nov-18 02:33N 09°29' W 013°43'2 2.2
2014-Nov-18 01:33N 09°31' W 013°43'2 2.4
2014-Nov-18 00:33N 09°28' W 013°43'2 2.4
2014-Nov-17 23:34N 09°31' W 013°43'1 0.7
2014-Nov-17 22:34N 09°30' W 013°44'2 1.7
2014-Nov-17 21:34N 09°29' W 013°43'2 2.1
2014-Nov-17 20:34N 09°31' W 013°43'3 3.4
2014-Nov-17 19:34N 09°27' W 013°42'4 3.8
2014-Nov-17 18:34N 09°31' W 013°43'1 1.5
2014-Nov-17 17:34N 09°30' W 013°43'0 0.4
2014-Nov-17 16:34N 09°29' W 013°44'1 1.1
2014-Nov-17 15:34N 09°29' W 013°43'1 1.4
2014-Nov-17 14:34N 09°30' W 013°43'1 1.0
2014-Nov-17 13:34N 09°31' W 013°43'3 2.9
2014-Nov-17 12:34N 09°28' W 013°43'3 2.6
2014-Nov-17 11:34N 09°31' W 013°43'0 0.3
2014-Nov-17 10:34N 09°30' W 013°44'2 2.3
2014-Nov-17 09:34N 09°28' W 013°43'3 2.8
2014-Nov-17 08:34N 09°31' W 013°43'3 3.4
2014-Nov-17 07:34N 09°28' W 013°43'3 3.4
2014-Nov-17 06:34N 09°31' W 013°43'2 1.6
2014-Nov-17 05:34N 09°29' W 013°44'0 0.4
2014-Nov-17 04:34N 09°30' W 013°44'1 1.0
2014-Nov-17 03:34N 09°31' W 013°43'3 3.3
2014-Nov-17 02:34N 09°28' W 013°43'4 3.6
2014-Nov-17 01:33N 09°31' W 013°43'2 2.1
2014-Nov-17 00:34N 09°29' W 013°44'1 1.1
2014-Nov-16 23:34N 09°30' W 013°44'0 0.4
2014-Nov-16 22:34N 09°30' W 013°44'3 2.8
2014-Nov-16 21:33N 09°28' W 013°43'3 3.3
2014-Nov-16 20:34N 09°31' W 013°43'3 3.2
2014-Nov-16 19:33N 09°28' W 013°43'3 2.9
2014-Nov-16 18:33N 09°31' W 013°43'0 0.1
2014-Nov-16 17:34N 09°31' W 013°43'3 2.8
2014-Nov-16 16:34N 09°28' W 013°42'3 2.9
2014-Nov-16 15:34N 09°31' W 013°43'1 1.5
2014-Nov-16 14:34N 09°29' W 013°43'0 0.3
2014-Nov-16 13:34N 09°29' W 013°43'2 2.0
2014-Nov-16 12:34N 09°31' W 013°43'1 1.3
2014-Nov-16 11:34N 09°30' W 013°44'1 1.3
2014-Nov-16 10:34N 09°28' W 013°43'2 2.4
2014-Nov-16 09:34N 09°31' W 013°43'3 3.3
2014-Nov-16 08:34N 09°28' W 013°43'3 3.5
2014-Nov-16 07:33N 09°31' W 013°43'1 1.4
2014-Nov-16 06:34N 09°30' W 013°44'1 1.3
2014-Nov-16 05:33N 09°28' W 013°43'2 2.3
2014-Nov-16 04:34N 09°31' W 013°43'3 3.3
2014-Nov-16 03:34N 09°28' W 013°43'3 3.5
2014-Nov-16 02:34N 09°31' W 013°43'1 1.4
2014-Nov-16 01:34N 09°30' W 013°44'1 1.1
2014-Nov-16 00:33N 09°29' W 013°43'2 2.1
2014-Nov-15 23:33N 09°31' W 013°43'3 3.2
2014-Nov-15 22:33N 09°28' W 013°43'3 3.3
2014-Nov-15 21:34N 09°31' W 013°43'1 1.2
2014-Nov-15 20:33N 09°30' W 013°44'2 1.6
2014-Nov-15 19:34N 09°28' W 013°43'3 2.6
2014-Nov-15 18:34N 09°31' W 013°43'2 2.3
2014-Nov-15 17:34N 09°29' W 013°43'2 1.6
2014-Nov-15 16:34N 09°30' W 013°44'1 0.9
2014-Nov-15 15:34N 09°31' W 013°43'2 2.0
2014-Nov-15 14:33N 09°29' W 013°43'1 1.3
2014-Nov-15 13:34N 09°30' W 013°44'1 0.6
2014-Nov-15 12:33N 09°31' W 013°43'3 2.7
2014-Nov-15 11:33N 09°28' W 013°43'1 1.4
2014-Nov-15 10:34N 09°29' W 013°44'2 1.6
2014-Nov-15 09:33N 09°31' W 013°43'1 1.5
2014-Nov-15 08:33N 09°29' W 013°44'1 1.1
2014-Nov-15 07:34N 09°30' W 013°44'3 3.2
2014-Nov-15 06:33N 09°27' W 013°42'3 3.3
2014-Nov-15 05:34N 09°31' W 013°43'1 1.1
2014-Nov-15 04:34N 09°30' W 013°44'1 1.1
2014-Nov-15 03:34N 09°29' W 013°43'2 2.1
2014-Nov-15 02:34N 09°31' W 013°43'2 2.3
2014-Nov-15 01:34N 09°28' W 013°43'  
Track history (hours):
 
Tides and Currents Weather Stations Pressure Air Temp Water Temp Dewpoint Dewpoint Depression Visibility Wind Speed Wind Dir Waves Ship Positions

Atlantico Due

Last reported at 2014-Nov-25 01:33 UTC. Time now 2014-Nov-25 01:54 UTC.
Position N 09°27' W 013°42'.

; draft 6 m.

Type: Dredging. MMSI: 205062000.

Date/timePositionNaut miles runAvg speedWind from/ knotsBaromVisibWave heightAir tempDewpointWater temp
2014-Nov-25 01:33N 09°27' W 013°42'3 3.2
2014-Nov-25 00:34N 09°30' W 013°43'1 0.9
2014-Nov-24 23:34N 09°30' W 013°43'1 0.7
2014-Nov-24 22:34N 09°30' W 013°44'1 1.3
2014-Nov-24 21:34N 09°29' W 013°43'2 1.6
2014-Nov-24 20:34N 09°31' W 013°43'1 0.8
2014-Nov-24 19:33N 09°30' W 013°43'1 0.8
2014-Nov-24 18:33N 09°31' W 013°43'0 0.0
2014-Nov-24 17:34N 09°31' W 013°43'3 3.0
2014-Nov-24 16:33N 09°28' W 013°42'3 3.1
2014-Nov-24 15:34N 09°31' W 013°43'1 1.4
2014-Nov-24 14:33N 09°29' W 013°44'2 1.7
2014-Nov-24 13:34N 09°31' W 013°43'1 1.0
2014-Nov-24 12:33N 09°30' W 013°44'0 0.3
2014-Nov-24 11:34N 09°30' W 013°44'0 0.3
2014-Nov-24 10:34N 09°30' W 013°44'0 0.2
2014-Nov-24 09:34N 09°30' W 013°44'0 0.4
2014-Nov-24 08:34N 09°30' W 013°43'2 1.8
2014-Nov-24 07:34N 09°28' W 013°43'2 2.4
2014-Nov-24 06:34N 09°31' W 013°44'1 1.0
2014-Nov-24 05:34N 09°30' W 013°44'1 0.7
2014-Nov-24 04:34N 09°30' W 013°44'3 3.0
2014-Nov-24 03:34N 09°28' W 013°42'3 3.1
2014-Nov-24 02:34N 09°30' W 013°43'3 2.5
2014-Nov-24 01:34N 09°28' W 013°43'3 2.5
2014-Nov-24 00:33N 09°30' W 013°44'0 0.5
2014-Nov-23 23:34N 09°30' W 013°44'2 2.1
2014-Nov-23 22:33N 09°28' W 013°42'3 2.9
2014-Nov-23 21:34N 09°31' W 013°43'1 0.5
2014-Nov-23 20:34N 09°30' W 013°44'2 1.8
2014-Nov-23 19:34N 09°29' W 013°43'2 1.8
2014-Nov-23 18:33N 09°30' W 013°44'0 0.1
2014-Nov-23 17:33N 09°30' W 013°44'2 2.5
2014-Nov-23 16:34N 09°28' W 013°43'3 2.5
2014-Nov-23 15:34N 09°30' W 013°44'0 0.2
2014-Nov-23 14:34N 09°30' W 013°44'1 1.1
2014-Nov-23 13:34N 09°29' W 013°43'1 1.5
2014-Nov-23 12:34N 09°30' W 013°43'3 2.7
2014-Nov-23 11:34N 09°28' W 013°43'3 3.3
2014-Nov-23 10:33N 09°31' W 013°43'3 3.4
2014-Nov-23 09:33N 09°28' W 013°42'3 2.6
2014-Nov-23 08:33N 09°30' W 013°44'0 0.1
2014-Nov-23 07:33N 09°30' W 013°44'2 2.3
2014-Nov-23 06:34N 09°28' W 013°42'3 2.9
2014-Nov-23 05:34N 09°31' W 013°43'2 1.9
2014-Nov-23 04:33N 09°29' W 013°44'0 0.4
2014-Nov-23 03:33N 09°29' W 013°43'2 2.1
2014-Nov-23 02:34N 09°31' W 013°43'3 3.2
2014-Nov-23 01:33N 09°28' W 013°43'3 2.8
2014-Nov-23 00:34N 09°30' W 013°44'1 0.5
2014-Nov-22 23:33N 09°31' W 013°43'3 2.9
2014-Nov-22 22:33N 09°28' W 013°43'3 3.0
2014-Nov-22 21:33N 09°31' W 013°43'1 1.0
2014-Nov-22 20:33N 09°30' W 013°44'1 1.3
2014-Nov-22 19:34N 09°29' W 013°43'2 1.7
2014-Nov-22 18:33N 09°31' W 013°43'1 0.6
2014-Nov-22 17:33N 09°30' W 013°43'1 0.6
2014-Nov-22 16:34N 09°29' W 013°43'1 1.3
2014-Nov-22 15:33N 09°31' W 013°43'3 3.2
2014-Nov-22 14:34N 09°28' W 013°43'3 3.2
2014-Nov-22 13:33N 09°31' W 013°43'3 3.3
2014-Nov-22 12:33N 09°27' W 013°43'3 3.4
2014-Nov-22 11:33N 09°31' W 013°43'3 3.0
2014-Nov-22 10:33N 09°28' W 013°42'3 2.9
2014-Nov-22 09:33N 09°31' W 013°44'1 0.7
2014-Nov-22 08:33N 09°30' W 013°43'2 2.2
2014-Nov-22 07:33N 09°28' W 013°42'3 2.9
2014-Nov-22 06:33N 09°31' W 013°43'3 3.0
2014-Nov-22 05:33N 09°28' W 013°42'3 3.3
2014-Nov-22 04:34N 09°31' W 013°43'1 1.2
2014-Nov-22 03:33N 09°30' W 013°44'3 2.6
2014-Nov-22 02:33N 09°27' W 013°43'3 3.3
2014-Nov-22 01:33N 09°31' W 013°43'1 0.8
2014-Nov-22 00:34N 09°30' W 013°44'2 1.9
2014-Nov-21 23:33N 09°28' W 013°43'3 2.8
2014-Nov-21 22:33N 09°31' W 013°43'2 1.7
2014-Nov-21 21:33N 09°29' W 013°44'1 0.5
2014-Nov-21 20:33N 09°29' W 013°43'2 1.9
2014-Nov-21 19:33N 09°31' W 013°43'3 2.6
2014-Nov-21 18:34N 09°29' W 013°43'3 2.6
2014-Nov-21 17:33N 09°31' W 013°43'3 3.2
2014-Nov-21 16:33N 09°28' W 013°42'3 3.2
2014-Nov-21 15:33N 09°31' W 013°43'0 0.1
2014-Nov-21 14:22N 09°31' W 013°43'0 0.0
2014-Nov-21 13:31N 09°31' W 013°43'0 0.0
2014-Nov-21 12:33N 09°31' W 013°43'0 0.0
2014-Nov-21 11:33N 09°31' W 013°43'0 0.0
2014-Nov-21 10:33N 09°31' W 013°43'0 0.0
2014-Nov-21 09:33N 09°31' W 013°43'0 0.0
2014-Nov-21 08:33N 09°31' W 013°43'1 0.6
2014-Nov-21 07:33N 09°31' W 013°43'2 1.6
2014-Nov-21 06:33N 09°29' W 013°44'1 1.4
2014-Nov-21 05:34N 09°28' W 013°43'0 0.1
2014-Nov-21 04:33N 09°28' W 013°43'1 0.9
2014-Nov-21 03:33N 09°29' W 013°43'1 1.1
2014-Nov-21 02:33N 09°30' W 013°44'1 0.7
2014-Nov-21 01:33N 09°29' W 013°44'1 0.7
2014-Nov-21 00:33N 09°30' W 013°44'0 0.4
2014-Nov-20 23:33N 09°29' W 013°44'0 0.2
2014-Nov-20 22:33N 09°29' W 013°44'0 0.3
2014-Nov-20 21:33N 09°29' W 013°44'0 0.1
2014-Nov-20 20:33N 09°29' W 013°44'0 0.5
2014-Nov-20 19:33N 09°29' W 013°44'1 0.6
2014-Nov-20 18:33N 09°30' W 013°44'0 0.0
2014-Nov-20 17:33N 09°30' W 013°44'0 0.1
2014-Nov-20 16:34N 09°29' W 013°44'0 0.1
2014-Nov-20 15:33N 09°29' W 013°44'0 0.5
2014-Nov-20 14:33N 09°29' W 013°44'2 1.8
2014-Nov-20 13:33N 09°27' W 013°43'1 0.6
2014-Nov-20 12:33N 09°28' W 013°43'1 1.3
2014-Nov-20 11:33N 09°29' W 013°44'1 0.6
2014-Nov-20 10:33N 09°30' W 013°44'1 1.0
2014-Nov-20 09:33N 09°29' W 013°43'1 1.1
2014-Nov-20 08:33N 09°28' W 013°42'1 1.4
2014-Nov-20 07:33N 09°29' W 013°43'2 1.7
2014-Nov-20 06:33N 09°31' W 013°43'1 0.8
2014-Nov-20 05:33N 09°30' W 013°44'2 2.2
2014-Nov-20 04:33N 09°28' W 013°43'3 2.9
2014-Nov-20 03:33N 09°31' W 013°43'3 2.7
2014-Nov-20 02:33N 09°28' W 013°43'2 2.5
2014-Nov-20 01:34N 09°31' W 013°43'0 0.5
2014-Nov-20 00:34N 09°30' W 013°44'2 2.0
2014-Nov-19 23:34N 09°28' W 013°43'2 2.5
2014-Nov-19 22:34N 09°31' W 013°43'3 2.8
2014-Nov-19 21:33N 09°28' W 013°43'3 2.7
2014-Nov-19 20:33N 09°31' W 013°44'1 0.5
2014-Nov-19 19:33N 09°31' W 013°43'3 2.6
2014-Nov-19 18:33N 09°29' W 013°43'2 1.7
2014-Nov-19 17:34N 09°30' W 013°44'1 0.7
2014-Nov-19 16:33N 09°31' W 013°43'0 0.4
2014-Nov-19 15:33N 09°30' W 013°44'3 2.8
2014-Nov-19 14:33N 09°28' W 013°43'2 1.8
2014-Nov-19 13:34N 09°29' W 013°44'1 0.5
2014-Nov-19 12:33N 09°30' W 013°44'0 0.1
2014-Nov-19 11:33N 09°30' W 013°44'2 1.7
2014-Nov-19 10:34N 09°28' W 013°43'0 0.2
2014-Nov-19 09:33N 09°28' W 013°43'1 1.2
2014-Nov-19 08:33N 09°29' W 013°44'0 0.3
2014-Nov-19 07:33N 09°29' W 013°44'1 1.2
2014-Nov-19 06:33N 09°30' W 013°44'3 2.7
2014-Nov-19 05:33N 09°28' W 013°43'3 3.1
2014-Nov-19 04:33N 09°31' W 013°43'2 1.9
2014-Nov-19 03:33N 09°29' W 013°43'1 0.7
2014-Nov-19 02:34N 09°30' W 013°44'1 0.9
2014-Nov-19 01:33N 09°30' W 013°44'2 2.4
2014-Nov-19 00:31N 09°28' W 013°43'3 3.1
2014-Nov-18 23:33N 09°31' W 013°43'1 1.1
2014-Nov-18 22:33N 09°30' W 013°44'2 1.7
2014-Nov-18 21:33N 09°28' W 013°43'3 2.5
2014-Nov-18 20:33N 09°31' W 013°43'2 2.4
2014-Nov-18 19:33N 09°28' W 013°43'2 1.7
2014-Nov-18 18:33N 09°30' W 013°44'1 1.0
2014-Nov-18 17:33N 09°31' W 013°43'2 2.1
2014-Nov-18 16:33N 09°29' W 013°43'1 0.9
2014-Nov-18 15:33N 09°30' W 013°43'1 1.2
2014-Nov-18 14:33N 09°31' W 013°43'3 2.9
2014-Nov-18 13:33N 09°28' W 013°43'3 2.9
2014-Nov-18 12:33N 09°31' W 013°43'1 0.9
2014-Nov-18 11:33N 09°30' W 013°44'2 1.7
2014-Nov-18 10:33N 09°28' W 013°43'3 2.5
2014-Nov-18 09:33N 09°31' W 013°43'3 3.3
2014-Nov-18 08:33N 09°28' W 013°43'3 3.4
2014-Nov-18 07:34N 09°31' W 013°43'0 0.5
2014-Nov-18 06:33N 09°31' W 013°43'3 2.9
2014-Nov-18 05:32N 09°28' W 013°42'3 3.3
2014-Nov-18 04:33N 09°31' W 013°43'1 1.3
2014-Nov-18 03:34N 09°30' W 013°44'1 1.2
2014-Nov-18 02:33N 09°29' W 013°43'2 2.2
2014-Nov-18 01:33N 09°31' W 013°43'2 2.4
2014-Nov-18 00:33N 09°28' W 013°43'2 2.4
2014-Nov-17 23:34N 09°31' W 013°43'1 0.7
2014-Nov-17 22:34N 09°30' W 013°44'2 1.7
2014-Nov-17 21:34N 09°29' W 013°43'2 2.1
2014-Nov-17 20:34N 09°31' W 013°43'3 3.4
2014-Nov-17 19:34N 09°27' W 013°42'4 3.8
2014-Nov-17 18:34N 09°31' W 013°43'1 1.5
2014-Nov-17 17:34N 09°30' W 013°43'0 0.4
2014-Nov-17 16:34N 09°29' W 013°44'1 1.1
2014-Nov-17 15:34N 09°29' W 013°43'1 1.4
2014-Nov-17 14:34N 09°30' W 013°43'1 1.0
2014-Nov-17 13:34N 09°31' W 013°43'3 2.9
2014-Nov-17 12:34N 09°28' W 013°43'3 2.6
2014-Nov-17 11:34N 09°31' W 013°43'0 0.3
2014-Nov-17 10:34N 09°30' W 013°44'2 2.3
2014-Nov-17 09:34N 09°28' W 013°43'3 2.8
2014-Nov-17 08:34N 09°31' W 013°43'3 3.4
2014-Nov-17 07:34N 09°28' W 013°43'3 3.4
2014-Nov-17 06:34N 09°31' W 013°43'2 1.6
2014-Nov-17 05:34N 09°29' W 013°44'0 0.4
2014-Nov-17 04:34N 09°30' W 013°44'1 1.0
2014-Nov-17 03:34N 09°31' W 013°43'3 3.3
2014-Nov-17 02:34N 09°28' W 013°43'4 3.6
2014-Nov-17 01:33N 09°31' W 013°43'2 2.1
2014-Nov-17 00:34N 09°29' W 013°44'1 1.1
2014-Nov-16 23:34N 09°30' W 013°44'0 0.4
2014-Nov-16 22:34N 09°30' W 013°44'3 2.8
2014-Nov-16 21:33N 09°28' W 013°43'3 3.3
2014-Nov-16 20:34N 09°31' W 013°43'3 3.2
2014-Nov-16 19:33N 09°28' W 013°43'3 2.9
2014-Nov-16 18:33N 09°31' W 013°43'0 0.1
2014-Nov-16 17:34N 09°31' W 013°43'3 2.8
2014-Nov-16 16:34N 09°28' W 013°42'3 2.9
2014-Nov-16 15:34N 09°31' W 013°43'1 1.5
2014-Nov-16 14:34N 09°29' W 013°43'0 0.3
2014-Nov-16 13:34N 09°29' W 013°43'2 2.0
2014-Nov-16 12:34N 09°31' W 013°43'1 1.3
2014-Nov-16 11:34N 09°30' W 013°44'1 1.3
2014-Nov-16 10:34N 09°28' W 013°43'2 2.4
2014-Nov-16 09:34N 09°31' W 013°43'3 3.3
2014-Nov-16 08:34N 09°28' W 013°43'3 3.5
2014-Nov-16 07:33N 09°31' W 013°43'1 1.4
2014-Nov-16 06:34N 09°30' W 013°44'1 1.3
2014-Nov-16 05:33N 09°28' W 013°43'2 2.3
2014-Nov-16 04:34N 09°31' W 013°43'3 3.3
2014-Nov-16 03:34N 09°28' W 013°43'3 3.5
2014-Nov-16 02:34N 09°31' W 013°43'1 1.4
2014-Nov-16 01:34N 09°30' W 013°44'1 1.1
2014-Nov-16 00:33N 09°29' W 013°43'2 2.1
2014-Nov-15 23:33N 09°31' W 013°43'3 3.2
2014-Nov-15 22:33N 09°28' W 013°43'3 3.3
2014-Nov-15 21:34N 09°31' W 013°43'1 1.2
2014-Nov-15 20:33N 09°30' W 013°44'2 1.6
2014-Nov-15 19:34N 09°28' W 013°43'3 2.6
2014-Nov-15 18:34N 09°31' W 013°43'2 2.3
2014-Nov-15 17:34N 09°29' W 013°43'2 1.6
2014-Nov-15 16:34N 09°30' W 013°44'1 0.9
2014-Nov-15 15:34N 09°31' W 013°43'2 2.0
2014-Nov-15 14:33N 09°29' W 013°43'1 1.3
2014-Nov-15 13:34N 09°30' W 013°44'1 0.6
2014-Nov-15 12:33N 09°31' W 013°43'3 2.7
2014-Nov-15 11:33N 09°28' W 013°43'1 1.4
2014-Nov-15 10:34N 09°29' W 013°44'2 1.6
2014-Nov-15 09:33N 09°31' W 013°43'1 1.5
2014-Nov-15 08:33N 09°29' W 013°44'1 1.1
2014-Nov-15 07:34N 09°30' W 013°44'3 3.2
2014-Nov-15 06:33N 09°27' W 013°42'3 3.3
2014-Nov-15 05:34N 09°31' W 013°43'1 1.1
2014-Nov-15 04:34N 09°30' W 013°44'1 1.1
2014-Nov-15 03:34N 09°29' W 013°43'2 2.1
2014-Nov-15 02:34N 09°31' W 013°43'2 2.3
2014-Nov-15 01:34N 09°28' W 013°43'  

Dump ship's entire track history